Aviation Digital Data Service (ADDS)

Output produced by METARs form (1411 UTC 24 April 2014)
found at http://aviationweather.gov/adds/metars/
 
KAND 241120Z 2412/2512 06006KT P6SM FEW250 
     FM241500 07010KT P6SM SKC 
     FM241800 11006KT P6SM FEW250 
     FM242000 16006KT P6SM BKN250 
     FM250500 11005KT P6SM BKN060 
     FM250700 12005KT P6SM BKN019